createdAt,value
2019-02-27T00:01:34.761Z,29.73
2019-02-27T00:04:03.059Z,27.20
2019-02-27T00:06:31.118Z,29.17
2019-02-27T00:09:00.521Z,24.13
2019-02-27T00:11:28.443Z,26.37
2019-02-27T00:13:57.969Z,26.57
2019-02-27T00:16:26.055Z,27.77
2019-02-27T00:18:53.763Z,30.50
2019-02-27T00:21:21.376Z,30.43
2019-02-27T00:23:48.916Z,39.17
2019-02-27T00:26:17.834Z,30.80
2019-02-27T00:28:45.403Z,37.97
2019-02-27T00:31:13.476Z,33.43
2019-02-27T00:33:41.063Z,32.10
2019-02-27T00:36:11.998Z,36.17
2019-02-27T00:38:38.701Z,36.60
2019-02-27T00:41:06.453Z,42.27
2019-02-27T00:43:34.722Z,33.87
2019-02-27T00:46:02.720Z,31.70
2019-02-27T00:48:30.290Z,38.27
2019-02-27T00:50:57.892Z,31.33
2019-02-27T00:53:25.843Z,31.60
2019-02-27T00:55:54.376Z,34.70
2019-02-27T00:58:21.926Z,30.30
2019-02-27T01:00:49.403Z,31.03
2019-02-27T01:03:16.959Z,37.53
2019-02-27T01:05:44.553Z,36.57
2019-02-27T01:08:12.141Z,39.67
2019-02-27T01:10:39.671Z,37.43
2019-02-27T01:13:07.156Z,38.17
2019-02-27T01:15:34.591Z,41.33
2019-02-27T01:18:02.075Z,41.57
2019-02-27T01:20:29.749Z,36.00
2019-02-27T01:22:57.334Z,37.17
2019-02-27T01:25:24.916Z,35.30
2019-02-27T01:27:52.472Z,34.33
2019-02-27T01:30:24.018Z,38.90
2019-02-27T01:32:49.746Z,34.03
2019-02-27T01:35:18.978Z,28.20
2019-02-27T01:37:46.758Z,29.53
2019-02-27T01:40:17.833Z,30.27
2019-02-27T01:42:44.620Z,35.27
2019-02-27T01:45:13.662Z,40.63
2019-02-27T01:47:41.202Z,37.43
2019-02-27T01:50:34.093Z,35.37
2019-02-27T01:53:02.301Z,44.57
2019-02-27T01:55:30.211Z,44.27
2019-02-27T01:57:57.824Z,43.03
2019-02-27T02:00:25.401Z,45.50
2019-02-27T02:02:53.263Z,47.00
2019-02-27T02:05:20.751Z,47.10
2019-02-27T02:07:48.318Z,49.73
2019-02-27T02:10:16.193Z,43.17
2019-02-27T02:12:45.667Z,42.60
2019-02-27T02:15:15.705Z,37.63
2019-02-27T02:18:13.782Z,41.63
2019-02-27T02:21:00.771Z,35.37
2019-02-27T02:23:50.938Z,34.00
2019-02-27T02:26:56.348Z,32.70
2019-02-27T02:29:42.269Z,49.07
2019-02-27T02:32:29.228Z,33.50
2019-02-27T02:35:16.333Z,33.47
2019-02-27T02:38:11.981Z,39.63
2019-02-27T02:40:53.643Z,37.10
2019-02-27T02:43:41.627Z,46.13
2019-02-27T02:46:21.101Z,43.03
2019-02-27T02:49:14.493Z,47.10
2019-02-27T02:52:10.587Z,44.50
2019-02-27T02:54:57.635Z,45.97
2019-02-27T02:57:53.960Z,50.03
2019-02-27T03:00:56.742Z,54.27
2019-02-27T03:03:27.109Z,67.03
2019-02-27T03:06:15.320Z,65.80
2019-02-27T03:09:08.245Z,68.27
2019-02-27T03:12:02.283Z,71.90
2019-02-27T03:14:33.515Z,66.23
2019-02-27T03:17:08.762Z,74.53
2019-02-27T03:19:42.645Z,71.03
2019-02-27T03:22:29.145Z,62.17
2019-02-27T03:25:18.214Z,53.47
2019-02-27T03:27:50.092Z,50.97
2019-02-27T03:30:43.222Z,43.47
2019-02-27T03:33:30.274Z,50.30
2019-02-27T03:36:23.587Z,55.00
2019-02-27T03:39:09.529Z,47.47
2019-02-27T03:42:00.198Z,49.17
2019-02-27T03:44:55.788Z,58.10
2019-02-27T03:47:28.803Z,57.17
2019-02-27T03:50:15.661Z,58.33
2019-02-27T03:53:11.113Z,66.17
2019-02-27T03:55:49.658Z,61.47
2019-02-27T03:58:33.314Z,73.47
2019-02-27T04:01:08.468Z,87.90
2019-02-27T04:03:56.563Z,74.67
2019-02-27T04:06:44.089Z,77.73
2019-02-27T04:09:11.629Z,80.00
2019-02-27T04:11:42.821Z,86.20
2019-02-27T04:14:42.349Z,89.13
2019-02-27T04:17:10.469Z,87.60
2019-02-27T04:19:39.200Z,87.83
2019-02-27T04:22:07.742Z,89.37
2019-02-27T04:24:35.401Z,90.70
2019-02-27T04:27:02.851Z,94.83
2019-02-27T04:29:30.385Z,97.10
2019-02-27T04:31:57.968Z,106.50
2019-02-27T04:34:25.509Z,110.03
2019-02-27T04:36:53.099Z,119.33
2019-02-27T04:39:20.956Z,119.87
2019-02-27T04:41:49.558Z,112.27
2019-02-27T04:44:17.986Z,112.70
2019-02-27T04:46:45.877Z,114.33
2019-02-27T04:49:13.430Z,115.73
2019-02-27T04:51:41.366Z,127.23
2019-02-27T04:54:09.001Z,135.53
2019-02-27T04:56:36.978Z,133.00
2019-02-27T04:59:04.548Z,122.67
2019-02-27T05:01:36.478Z,116.40
2019-02-27T05:04:02.209Z,127.43
2019-02-27T05:06:29.899Z,125.27
2019-02-27T05:08:59.974Z,125.73
2019-02-27T05:11:27.078Z,136.77
2019-02-27T05:13:54.979Z,139.27
2019-02-27T05:16:22.938Z,135.93
2019-02-27T05:18:50.506Z,126.47
2019-02-27T05:21:19.240Z,125.57
2019-02-27T05:23:47.461Z,116.30
2019-02-27T05:26:15.012Z,123.50
2019-02-27T05:28:42.577Z,131.73
2019-02-27T05:31:10.040Z,136.20
2019-02-27T05:33:39.692Z,149.20
2019-02-27T05:36:07.058Z,154.93
2019-02-27T05:38:35.021Z,143.87
2019-02-27T05:41:02.530Z,153.63
2019-02-27T05:43:30.086Z,160.63
2019-02-27T05:45:57.760Z,171.37
2019-02-27T05:48:26.087Z,163.97
2019-02-27T05:50:53.542Z,164.00
2019-02-27T05:53:22.385Z,144.13
2019-02-27T05:55:52.830Z,170.43
2019-02-27T05:58:22.996Z,171.00
2019-02-27T06:00:50.505Z,168.77
2019-02-27T06:03:18.297Z,162.13
2019-02-27T06:05:49.540Z,177.03
2019-02-27T06:08:15.982Z,161.60
2019-02-27T06:10:43.842Z,175.20
2019-02-27T06:13:14.065Z,162.87
2019-02-27T06:15:41.308Z,168.00
2019-02-27T06:18:08.847Z,163.13
2019-02-27T06:20:38.937Z,153.77
2019-02-27T06:23:07.277Z,149.90
2019-02-27T06:25:34.863Z,137.83
2019-02-27T06:28:04.224Z,154.23
2019-02-27T06:30:31.752Z,156.17
2019-02-27T06:32:59.323Z,144.87
2019-02-27T06:35:28.058Z,164.27
2019-02-27T06:37:55.756Z,165.00
2019-02-27T06:40:23.869Z,165.20
2019-02-27T06:42:53.961Z,197.83
2019-02-27T06:45:21.116Z,165.67
2019-02-27T06:47:48.685Z,150.87
2019-02-27T06:50:16.253Z,182.47
2019-02-27T06:52:43.955Z,174.23
2019-02-27T06:55:13.258Z,182.03
2019-02-27T06:57:41.861Z,159.53
2019-02-27T07:00:13.689Z,174.13
2019-02-27T07:02:41.625Z,167.13
2019-02-27T07:05:13.265Z,156.63
2019-02-27T07:07:38.825Z,140.90
2019-02-27T07:10:07.078Z,113.00
2019-02-27T07:12:34.573Z,106.60
2019-02-27T07:15:02.461Z,88.10
2019-02-27T07:17:31.864Z,66.20
2019-02-27T07:19:59.379Z,61.93
2019-02-27T07:22:26.934Z,60.23
2019-02-27T07:24:54.493Z,56.50
2019-02-27T07:27:22.337Z,54.77
2019-02-27T07:29:49.945Z,44.13
2019-02-27T07:32:24.223Z,42.00
2019-02-27T07:34:51.800Z,35.80
2019-02-27T07:37:19.253Z,40.10
2019-02-27T07:42:38.025Z,23.30
2019-02-27T07:45:08.083Z,25.73
2019-02-27T07:47:35.672Z,26.17
2019-02-27T07:50:06.366Z,27.10
2019-02-27T07:52:33.346Z,21.67
2019-02-27T07:55:01.093Z,17.07
2019-02-27T07:57:29.705Z,19.37
2019-02-27T07:59:57.268Z,23.20
2019-02-27T08:02:24.812Z,21.10
2019-02-27T08:04:54.740Z,27.83
2019-02-27T08:07:22.045Z,27.93
2019-02-27T08:09:49.619Z,22.93
2019-02-27T08:12:17.493Z,29.80
2019-02-27T08:14:47.611Z,20.00
2019-02-27T08:17:17.887Z,23.30
2019-02-27T08:19:45.974Z,26.27
2019-02-27T08:22:13.994Z,20.73
2019-02-27T08:24:41.636Z,18.53
2019-02-27T08:27:09.714Z,22.83
2019-02-27T08:29:38.413Z,15.33
2019-02-27T08:32:05.874Z,20.87
2019-02-27T08:34:33.752Z,21.47
2019-02-27T08:37:02.443Z,19.23
2019-02-27T08:39:30.309Z,18.10
2019-02-27T08:41:57.949Z,15.33
2019-02-27T08:44:25.541Z,14.60
2019-02-27T08:46:53.102Z,16.53
2019-02-27T08:49:24.221Z,15.08
2019-02-27T08:51:50.127Z,18.32
2019-02-27T08:54:17.615Z,16.40
2019-02-27T08:56:47.244Z,17.77
2019-02-27T08:59:14.854Z,14.70
2019-02-27T09:01:42.446Z,14.33
2019-02-27T09:04:12.236Z,15.28
2019-02-27T09:06:39.369Z,16.32
2019-02-27T09:09:07.956Z,17.12
2019-02-27T09:11:37.159Z,15.85
2019-02-27T09:14:05.560Z,13.95
2019-02-27T09:16:33.738Z,22.35
2019-02-27T09:19:01.235Z,21.90
2019-02-27T09:21:28.784Z,21.37
2019-02-27T09:23:56.774Z,26.52
2019-02-27T09:26:24.978Z,18.92
2019-02-27T09:28:52.835Z,30.85
2019-02-27T09:31:21.013Z,21.25
2019-02-27T09:33:53.070Z,26.90
2019-02-27T09:36:17.946Z,30.48
2019-02-27T09:38:45.502Z,34.03
2019-02-27T09:41:13.371Z,29.85
2019-02-27T09:43:40.985Z,28.55
2019-02-27T09:46:08.543Z,28.02
2019-02-27T09:48:36.282Z,20.65
2019-02-27T09:51:04.293Z,18.00
2019-02-27T09:53:33.957Z,16.42
2019-02-27T09:56:01.209Z,14.63
2019-02-27T09:58:29.894Z,15.70
2019-02-27T10:01:00.746Z,14.33
2019-02-27T10:03:28.602Z,13.85
2019-02-27T10:05:56.218Z,12.78
2019-02-27T10:08:25.240Z,15.60
2019-02-27T10:10:53.206Z,16.15
2019-02-27T10:13:21.102Z,17.12
2019-02-27T10:15:48.651Z,14.18
2019-02-27T10:18:18.977Z,14.55
2019-02-27T10:20:46.120Z,19.35
2019-02-27T10:23:13.705Z,13.72
2019-02-27T10:25:43.589Z,14.63
2019-02-27T10:28:10.986Z,17.65
2019-02-27T10:30:38.746Z,15.98
2019-02-27T10:33:06.318Z,16.57
2019-02-27T10:35:34.977Z,16.35
2019-02-27T10:38:03.026Z,15.88
2019-02-27T10:40:30.681Z,13.78
2019-02-27T10:42:58.233Z,16.52
2019-02-27T10:45:26.120Z,18.42
2019-02-27T10:47:53.658Z,16.32
2019-02-27T10:50:21.261Z,15.98
2019-02-27T10:52:50.121Z,16.48
2019-02-27T10:55:17.985Z,17.52
2019-02-27T10:57:45.607Z,17.27
2019-02-27T11:00:25.898Z,14.18
2019-02-27T11:02:54.214Z,17.35
2019-02-27T11:05:21.942Z,20.92
2019-02-27T11:07:50.096Z,17.23
2019-02-27T11:10:19.560Z,21.17
2019-02-27T11:12:47.255Z,20.48
2019-02-27T11:15:15.570Z,18.30
2019-02-27T11:17:43.189Z,17.02
2019-02-27T11:20:11.245Z,19.50
2019-02-27T11:22:39.041Z,22.82
2019-02-27T11:25:09.089Z,19.07
2019-02-27T11:27:39.013Z,16.82
2019-02-27T11:30:09.894Z,20.68
2019-02-27T11:32:37.892Z,20.62
2019-02-27T11:35:05.829Z,16.67
2019-02-27T11:37:33.451Z,17.23
2019-02-27T11:40:01.180Z,21.93
2019-02-27T11:42:28.951Z,19.42
2019-02-27T11:44:58.605Z,18.48
2019-02-27T11:47:26.323Z,23.25
2019-02-27T11:49:53.935Z,21.27
2019-02-27T11:52:21.906Z,20.23
2019-02-27T11:54:49.822Z,17.70
2019-02-27T11:57:17.419Z,19.65
2019-02-27T11:59:47.017Z,22.00
2019-02-27T12:02:15.056Z,23.85
2019-02-27T12:04:42.698Z,18.55
2019-02-27T12:07:12.225Z,16.42
2019-02-27T12:09:40.427Z,21.55
2019-02-27T12:12:13.349Z,21.50
2019-02-27T12:14:40.880Z,20.70
2019-02-27T12:17:08.550Z,25.77
2019-02-27T12:19:36.168Z,24.00
2019-02-27T12:22:04.113Z,23.57
2019-02-27T12:24:31.713Z,20.80
2019-02-27T12:26:59.310Z,23.45
2019-02-27T12:29:27.354Z,23.65
2019-02-27T12:31:55.174Z,26.05
2019-02-27T12:34:23.062Z,23.40
2019-02-27T12:36:52.550Z,22.07
2019-02-27T12:39:20.114Z,28.02
2019-02-27T12:41:47.732Z,22.40
2019-02-27T12:44:15.223Z,21.77
2019-02-27T12:46:42.899Z,23.83
2019-02-27T12:49:10.489Z,23.57
2019-02-27T12:51:38.291Z,25.70
2019-02-27T12:54:06.738Z,26.48
2019-02-27T12:56:34.417Z,26.20
2019-02-27T12:59:02.106Z,28.02
2019-02-27T13:01:29.736Z,28.73
2019-02-27T13:03:57.906Z,26.90
2019-02-27T13:06:25.815Z,24.77
2019-02-27T13:08:53.534Z,28.73
2019-02-27T13:11:21.109Z,25.12
2019-02-27T13:13:48.621Z,27.37
2019-02-27T13:16:16.273Z,27.52
2019-02-27T13:18:43.856Z,26.68
2019-02-27T13:21:11.727Z,26.80
2019-02-27T13:23:42.241Z,24.63
2019-02-27T13:26:08.857Z,27.27
2019-02-27T13:28:36.437Z,28.65
2019-02-27T13:31:04.384Z,27.98
2019-02-27T13:33:32.934Z,28.23
2019-02-27T13:36:01.488Z,30.65
2019-02-27T13:38:29.139Z,24.50
2019-02-27T13:40:56.876Z,26.07
2019-02-27T13:43:27.143Z,26.10
2019-02-27T13:45:54.270Z,26.60
2019-02-27T13:48:21.993Z,28.30
2019-02-27T13:50:49.792Z,30.25
2019-02-27T13:53:17.421Z,30.27
2019-02-27T13:55:48.311Z,26.95
2019-02-27T13:58:14.750Z,32.90
2019-02-27T14:00:42.703Z,28.70
2019-02-27T14:03:12.650Z,33.73
2019-02-27T14:05:39.583Z,32.90
2019-02-27T14:08:07.078Z,28.55
2019-02-27T14:10:34.997Z,36.73
2019-02-27T14:13:02.911Z,32.88
2019-02-27T14:15:31.636Z,33.10
2019-02-27T14:17:59.563Z,33.65
2019-02-27T14:20:28.941Z,30.45
2019-02-27T14:22:56.874Z,33.85
2019-02-27T14:25:28.481Z,31.30
2019-02-27T14:27:54.409Z,34.63
2019-02-27T14:30:26.307Z,35.45
2019-02-27T14:32:53.902Z,30.88
2019-02-27T14:35:21.372Z,34.43
2019-02-27T14:37:50.162Z,33.10
2019-02-27T14:40:18.809Z,33.25
2019-02-27T14:42:46.418Z,39.63
2019-02-27T14:45:15.120Z,31.25
2019-02-27T14:47:42.615Z,33.08
2019-02-27T14:50:11.782Z,33.18
2019-02-27T14:52:39.983Z,30.92
2019-02-27T14:55:08.139Z,34.60
2019-02-27T14:57:35.814Z,36.00
2019-02-27T15:00:05.657Z,37.08
2019-02-27T15:02:34.029Z,37.78
2019-02-27T15:05:06.082Z,37.70
2019-02-27T15:07:31.402Z,35.95
2019-02-27T15:09:59.310Z,36.90
2019-02-27T15:12:26.871Z,38.00
2019-02-27T15:14:54.763Z,37.33
2019-02-27T15:17:23.452Z,33.80
2019-02-27T15:19:51.722Z,34.85
2019-02-27T15:22:20.561Z,45.25
2019-02-27T15:24:48.269Z,35.45
2019-02-27T15:27:15.761Z,32.42
2019-02-27T15:29:43.311Z,36.95
2019-02-27T15:32:10.904Z,41.70
2019-02-27T15:34:38.451Z,37.55
2019-02-27T15:37:06.105Z,33.95
2019-02-27T15:39:33.759Z,40.50
2019-02-27T15:42:08.717Z,36.00
2019-02-27T15:44:35.224Z,37.20
2019-02-27T15:47:03.033Z,36.80
2019-02-27T15:49:30.745Z,37.65
2019-02-27T15:51:58.441Z,39.95
2019-02-27T15:54:26.076Z,36.85
2019-02-27T15:56:55.118Z,36.68
2019-02-27T15:59:23.734Z,34.30
2019-02-27T16:01:51.475Z,40.33
2019-02-27T16:04:21.127Z,41.98
2019-02-27T16:06:51.130Z,34.58
2019-02-27T16:09:18.388Z,38.28
2019-02-27T16:11:48.104Z,38.90
2019-02-27T16:14:15.678Z,37.30
2019-02-27T16:16:43.655Z,38.10
2019-02-27T16:19:11.604Z,38.53
2019-02-27T16:21:39.206Z,40.83
2019-02-27T16:24:09.580Z,33.60
2019-02-27T16:26:38.013Z,48.38
2019-02-27T16:29:05.581Z,48.92
2019-02-27T16:31:37.139Z,50.65
2019-02-27T16:34:04.714Z,50.73
2019-02-27T16:36:36.153Z,49.73
2019-02-27T16:39:06.949Z,50.67
2019-02-27T16:41:30.983Z,46.15
2019-02-27T16:43:58.539Z,50.85
2019-02-27T16:46:26.361Z,47.30
2019-02-27T16:48:54.255Z,49.38
2019-02-27T16:51:21.713Z,46.28
2019-02-27T16:53:52.378Z,50.58
2019-02-27T16:56:18.956Z,53.08
2019-02-27T16:58:46.569Z,51.20
2019-02-27T17:01:14.657Z,51.75
2019-02-27T17:03:45.017Z,55.25
2019-02-27T17:06:17.170Z,54.13
2019-02-27T17:08:42.180Z,48.30
2019-02-27T17:11:10.446Z,48.50
2019-02-27T17:13:38.045Z,44.42
2019-02-27T17:16:07.129Z,52.30
2019-02-27T17:18:35.143Z,50.12
2019-02-27T17:21:03.250Z,58.40
2019-02-27T17:23:30.810Z,57.90
2019-02-27T17:26:03.401Z,59.70
2019-02-27T17:28:28.211Z,60.70
2019-02-27T17:30:56.002Z,62.98
2019-02-27T17:33:23.526Z,67.05
2019-02-27T17:35:53.040Z,66.95
2019-02-27T17:38:20.639Z,72.78
2019-02-27T17:40:48.284Z,71.87
2019-02-27T17:43:15.831Z,74.93
2019-02-27T17:45:44.343Z,78.30
2019-02-27T17:48:17.715Z,72.63
2019-02-27T17:50:45.711Z,70.43
2019-02-27T17:53:13.271Z,80.25
2019-02-27T17:55:41.546Z,79.27
2019-02-27T17:58:10.165Z,82.73
2019-02-27T18:00:40.045Z,76.35
2019-02-27T18:03:07.631Z,84.57
2019-02-27T18:05:35.928Z,81.97
2019-02-27T18:08:05.092Z,97.00
2019-02-27T18:10:37.151Z,89.23
2019-02-27T18:13:02.797Z,84.87
2019-02-27T18:15:30.537Z,109.13
2019-02-27T18:17:58.224Z,96.17
2019-02-27T18:20:26.180Z,108.03
2019-02-27T18:22:53.766Z,111.93
2019-02-27T18:25:21.687Z,138.10
2019-02-27T18:27:49.283Z,138.80
2019-02-27T18:30:18.789Z,126.40
2019-02-27T18:32:46.658Z,141.27
2019-02-27T18:35:14.422Z,129.00
2019-02-27T18:37:42.245Z,123.93
2019-02-27T18:40:11.165Z,120.13
2019-02-27T18:42:40.067Z,114.37
2019-02-27T18:45:08.512Z,119.30
2019-02-27T18:47:36.497Z,123.87
2019-02-27T18:50:04.370Z,111.60
2019-02-27T18:52:31.925Z,128.10
2019-02-27T18:55:00.038Z,136.17
2019-02-27T18:57:27.939Z,152.30
2019-02-27T18:59:57.409Z,150.37
2019-02-27T19:02:24.979Z,144.03
2019-02-27T19:04:52.651Z,150.90
2019-02-27T19:07:23.628Z,152.10
2019-02-27T19:09:51.400Z,137.77
2019-02-27T19:12:19.176Z,139.60
2019-02-27T19:14:46.670Z,149.57
2019-02-27T19:17:14.762Z,141.73
2019-02-27T19:19:42.955Z,145.43
2019-02-27T19:22:11.329Z,142.70
2019-02-27T19:24:39.408Z,151.03
2019-02-27T19:27:07.023Z,163.10
2019-02-27T19:29:34.604Z,176.13
2019-02-27T19:32:02.196Z,193.93
2019-02-27T19:34:29.745Z,196.30
2019-02-27T19:36:57.419Z,203.27
2019-02-27T19:39:24.999Z,217.33
2019-02-27T19:41:52.748Z,217.57
2019-02-27T19:44:20.302Z,229.27
2019-02-27T19:46:47.945Z,243.73
2019-02-27T19:49:15.513Z,219.03
2019-02-27T19:51:45.034Z,231.00
2019-02-27T19:54:14.882Z,227.63
2019-02-27T19:56:42.137Z,266.20
2019-02-27T19:59:09.646Z,254.07
2019-02-27T20:01:37.210Z,265.80
2019-02-27T20:04:09.062Z,256.47
2019-02-27T20:06:34.272Z,258.97
2019-02-27T20:09:01.837Z,263.73
2019-02-27T20:11:29.732Z,264.67
2019-02-27T20:14:02.134Z,286.73
2019-02-27T20:16:27.313Z,299.53
2019-02-27T20:18:55.295Z,315.43
2019-02-27T20:21:22.982Z,303.50
2019-02-27T20:23:50.530Z,312.87
2019-02-27T20:26:21.031Z,301.80
2019-02-27T20:28:47.545Z,299.17
2019-02-27T20:31:17.957Z,321.40
2019-02-27T20:33:44.967Z,324.53
2019-02-27T20:36:13.055Z,321.20
2019-02-27T20:38:40.996Z,319.03
2019-02-27T20:41:09.003Z,303.17
2019-02-27T20:43:36.677Z,309.07
2019-02-27T20:46:04.431Z,313.60
2019-02-27T20:48:36.161Z,329.57
2019-02-27T20:51:02.828Z,357.10
2019-02-27T20:53:32.007Z,387.63
2019-02-27T20:56:03.013Z,364.13
2019-02-27T20:58:29.171Z,369.27
2019-02-27T21:00:56.962Z,400.57
2019-02-27T21:03:27.182Z,339.13
2019-02-27T21:05:54.156Z,353.33
2019-02-27T21:08:22.196Z,375.57
2019-02-27T21:10:54.732Z,401.80
2019-02-27T21:13:19.596Z,427.73
2019-02-27T21:15:47.212Z,429.37
2019-02-27T21:18:14.820Z,390.40
2019-02-27T21:20:45.292Z,421.87
2019-02-27T21:23:12.294Z,389.07
2019-02-27T21:25:39.912Z,385.00
2019-02-27T21:28:08.619Z,385.40
2019-02-27T21:30:36.241Z,394.53
2019-02-27T21:33:04.111Z,391.30
2019-02-27T21:35:31.653Z,394.80
2019-02-27T21:37:59.155Z,392.13
2019-02-27T21:40:27.123Z,394.97
2019-02-27T21:42:54.739Z,432.17
2019-02-27T21:45:22.472Z,437.97
2019-02-27T21:47:51.796Z,443.13
2019-02-27T21:50:20.253Z,455.13
2019-02-27T21:52:47.978Z,455.30
2019-02-27T21:55:15.590Z,461.13
2019-02-27T21:57:43.247Z,472.43
2019-02-27T22:00:14.041Z,463.70
2019-02-27T22:02:43.001Z,461.00
2019-02-27T22:05:10.873Z,486.53
2019-02-27T22:07:38.502Z,499.83
2019-02-27T22:10:07.449Z,471.87
2019-02-27T22:12:35.221Z,464.67
2019-02-27T22:15:04.817Z,464.17
2019-02-27T22:17:32.442Z,480.57
2019-02-27T22:20:00.138Z,455.17
2019-02-27T22:22:28.354Z,426.53
2019-02-27T22:24:56.371Z,436.10
2019-02-27T22:27:24.084Z,442.83
2019-02-27T22:29:52.580Z,439.40
2019-02-27T22:32:20.393Z,429.67
2019-02-27T22:34:48.049Z,428.00
2019-02-27T22:37:18.427Z,452.43
2019-02-27T22:39:45.063Z,508.63
2019-02-27T22:42:14.760Z,480.33
2019-02-27T22:44:42.188Z,476.27
2019-02-27T22:47:09.773Z,484.70
2019-02-27T22:49:37.885Z,531.83
2019-02-27T22:52:05.480Z,486.00
2019-02-27T22:54:33.205Z,507.30
2019-02-27T22:57:02.536Z,524.90
2019-02-27T22:59:30.312Z,511.00
2019-02-27T23:01:57.905Z,512.67
2019-02-27T23:04:25.522Z,508.57
2019-02-27T23:06:53.096Z,537.40
2019-02-27T23:09:21.746Z,530.33
2019-02-27T23:11:49.675Z,525.40
2019-02-27T23:14:18.848Z,538.07
2019-02-27T23:16:46.881Z,517.17
2019-02-27T23:19:14.915Z,533.37
2019-02-27T23:21:42.540Z,542.50
2019-02-27T23:24:10.977Z,542.57
2019-02-27T23:26:38.684Z,577.13
2019-02-27T23:29:06.539Z,580.80
2019-02-27T23:31:34.189Z,554.47
2019-02-27T23:34:01.729Z,562.13
2019-02-27T23:36:29.504Z,562.70
2019-02-27T23:38:57.298Z,560.27
2019-02-27T23:41:24.739Z,584.40
2019-02-27T23:43:52.204Z,581.10
2019-02-27T23:46:19.863Z,586.83
2019-02-27T23:48:47.803Z,549.40
2019-02-27T23:51:16.714Z,576.57
2019-02-27T23:53:44.924Z,608.07
2019-02-27T23:56:12.468Z,644.47
2019-02-27T23:58:40.058Z,653.07
